createdAt,value
2022-12-12T00:02:06.701Z,101201.56
2022-12-12T00:04:33.290Z,101201.66
2022-12-12T00:06:59.951Z,101195.66
2022-12-12T00:09:26.609Z,101202.63
2022-12-12T00:11:53.214Z,101200.97
2022-12-12T00:14:19.968Z,101203.66
2022-12-12T00:16:46.622Z,101203.75
2022-12-12T00:19:13.314Z,101211.53
2022-12-12T00:21:40.075Z,101212.41
2022-12-12T00:24:07.216Z,101215.00
2022-12-12T00:26:34.914Z,101207.16
2022-12-12T00:29:03.931Z,101212.41
2022-12-12T00:31:33.442Z,101208.88
2022-12-12T00:34:02.928Z,101214.91
2022-12-12T00:36:31.069Z,101208.84
2022-12-12T00:38:58.986Z,101225.28
2022-12-12T00:41:25.995Z,101224.50
2022-12-12T00:43:52.896Z,101224.50
2022-12-12T00:46:22.446Z,101220.13
2022-12-12T00:48:49.411Z,101217.50
2022-12-12T00:51:21.730Z,101222.72
2022-12-12T00:53:48.944Z,101221.91
2022-12-12T00:56:17.474Z,101221.91
2022-12-12T00:58:44.328Z,101219.31
2022-12-12T01:01:14.243Z,101227.16
2022-12-12T01:03:42.219Z,101222.00
2022-12-12T01:06:09.654Z,101218.47
2022-12-12T01:08:37.282Z,101222.81
2022-12-12T01:11:04.349Z,101216.72
2022-12-12T01:13:31.053Z,101222.00
2022-12-12T01:15:58.081Z,101213.31
2022-12-12T01:18:25.591Z,101214.22
2022-12-12T01:20:53.070Z,101213.28
2022-12-12T01:23:19.718Z,101211.53
2022-12-12T01:25:46.406Z,101211.53
2022-12-12T01:28:13.145Z,101214.13
2022-12-12T01:30:39.946Z,101206.44
2022-12-12T01:33:06.649Z,101198.69
2022-12-12T01:35:34.122Z,101201.34
2022-12-12T01:38:00.758Z,101197.06
2022-12-12T01:40:30.018Z,101195.41
2022-12-12T01:42:56.955Z,101191.97
2022-12-12T01:45:57.431Z,101189.47
2022-12-12T01:48:53.418Z,101188.63
2022-12-12T01:51:23.564Z,101178.31
2022-12-12T01:53:54.430Z,101182.69
2022-12-12T01:56:21.700Z,101179.38
2022-12-12T01:58:51.394Z,101175.94
2022-12-12T02:01:19.267Z,101181.16
2022-12-12T02:03:48.527Z,101177.78
2022-12-12T02:06:19.942Z,101182.19
2022-12-12T02:08:47.798Z,101179.59
2022-12-12T02:11:14.439Z,101168.38
2022-12-12T02:13:41.522Z,101162.31
2022-12-12T02:16:31.407Z,101164.06
2022-12-12T02:19:22.672Z,101167.50
2022-12-12T02:22:03.287Z,101165.81
2022-12-12T02:24:48.826Z,101164.97
2022-12-12T02:27:27.396Z,101168.44
2022-12-12T02:30:06.547Z,101166.78
2022-12-12T02:32:36.138Z,101162.47
2022-12-12T02:35:19.061Z,101161.63
2022-12-12T02:37:52.918Z,101159.91
2022-12-12T02:40:36.889Z,101157.38
2022-12-12T02:43:06.429Z,101160.00
2022-12-12T02:45:54.494Z,101157.47
2022-12-12T02:48:32.208Z,101152.31
2022-12-12T02:51:02.323Z,101154.91
2022-12-12T02:53:28.966Z,101164.47
2022-12-12T02:56:06.924Z,101165.28
2022-12-12T02:58:36.216Z,101162.78
2022-12-12T03:01:26.535Z,101160.19
2022-12-12T03:04:24.102Z,101159.41
2022-12-12T03:07:21.550Z,101164.66
2022-12-12T03:10:09.686Z,101155.19
2022-12-12T03:12:49.108Z,101152.59
2022-12-12T03:15:26.254Z,101149.13
2022-12-12T03:18:16.663Z,101146.53
2022-12-12T03:20:53.756Z,101150.03
2022-12-12T03:23:28.538Z,101164.78
2022-12-12T03:26:26.902Z,101149.22
2022-12-12T03:29:05.776Z,101158.78
2022-12-12T03:31:37.573Z,101145.81
2022-12-12T03:34:27.946Z,101156.19
2022-12-12T03:37:01.262Z,101153.63
2022-12-12T03:39:35.489Z,101153.63
2022-12-12T03:42:15.647Z,101145.00
2022-12-12T03:44:51.391Z,101145.06
2022-12-12T03:47:23.550Z,101147.66
2022-12-12T03:49:52.487Z,101155.44
2022-12-12T03:52:38.768Z,101153.72
2022-12-12T03:55:31.898Z,101144.25
2022-12-12T03:58:05.416Z,101139.84
2022-12-12T04:00:38.409Z,101132.88
2022-12-12T04:03:32.958Z,101128.47
2022-12-12T04:06:37.690Z,101131.94
2022-12-12T04:09:33.027Z,101124.09
2022-12-12T04:12:35.356Z,101124.91
2022-12-12T04:15:20.090Z,101124.03
2022-12-12T04:18:22.345Z,101116.19
2022-12-12T04:21:07.300Z,101121.44
2022-12-12T04:23:57.020Z,101127.50
2022-12-12T04:26:40.676Z,101121.44
2022-12-12T04:29:17.393Z,101126.63
2022-12-12T04:31:57.797Z,101138.75
2022-12-12T04:34:50.274Z,101144.00
2022-12-12T04:37:24.593Z,101143.16
2022-12-12T04:39:56.721Z,101133.66
2022-12-12T04:42:28.752Z,101128.47
2022-12-12T04:45:03.470Z,101123.28
2022-12-12T04:47:32.333Z,101128.47
2022-12-12T04:50:03.371Z,101125.00
2022-12-12T04:52:32.989Z,101126.75
2022-12-12T04:55:21.137Z,101123.28
2022-12-12T04:57:51.107Z,101118.09
2022-12-12T05:00:18.307Z,101120.69
2022-12-12T05:03:02.245Z,101112.00
2022-12-12T05:05:37.134Z,101112.81
2022-12-12T05:08:23.030Z,101124.97
2022-12-12T05:10:56.139Z,101120.66
2022-12-12T05:13:29.291Z,101129.34
2022-12-12T05:15:58.145Z,101116.38
2022-12-12T05:18:24.746Z,101116.38
2022-12-12T05:20:51.858Z,101114.69
2022-12-12T05:23:18.791Z,101111.25
2022-12-12T05:25:45.475Z,101120.84
2022-12-12T05:28:12.187Z,101112.22
2022-12-12T05:30:38.843Z,101108.88
2022-12-12T05:33:05.564Z,101106.38
2022-12-12T05:35:33.959Z,101102.13
2022-12-12T05:38:02.067Z,101106.50
2022-12-12T05:40:28.741Z,101111.75
2022-12-12T05:42:55.418Z,101106.56
2022-12-12T05:45:22.159Z,101107.50
2022-12-12T05:47:48.878Z,101106.66
2022-12-12T05:50:15.538Z,101111.91
2022-12-12T05:52:42.186Z,101112.78
2022-12-12T05:55:09.017Z,101109.34
2022-12-12T05:57:35.841Z,101110.19
2022-12-12T06:00:02.730Z,101111.00
2022-12-12T06:02:29.385Z,101112.72
2022-12-12T06:04:56.023Z,101106.66
2022-12-12T06:07:22.669Z,101091.94
2022-12-12T06:09:49.277Z,101096.25
2022-12-12T06:12:15.916Z,101095.44
2022-12-12T06:14:42.574Z,101095.44
2022-12-12T06:17:09.245Z,101100.66
2022-12-12T06:19:35.920Z,101087.63
2022-12-12T06:22:02.526Z,101084.16
2022-12-12T06:24:29.197Z,101092.81
2022-12-12T06:26:56.033Z,101095.44
2022-12-12T06:29:22.717Z,101092.00
2022-12-12T06:31:49.363Z,101074.66
2022-12-12T06:34:16.068Z,101086.81
2022-12-12T06:36:43.117Z,101090.28
2022-12-12T06:39:10.183Z,101087.69
2022-12-12T06:41:37.182Z,101091.19
2022-12-12T06:44:04.439Z,101086.91
2022-12-12T06:46:31.311Z,101092.13
2022-12-12T06:48:58.659Z,101085.19
2022-12-12T06:51:29.083Z,101088.66
2022-12-12T06:53:56.661Z,101085.25
2022-12-12T06:56:25.411Z,101083.47
2022-12-12T06:58:53.179Z,101080.00
2022-12-12T07:01:21.768Z,101079.13
2022-12-12T07:03:49.747Z,101081.72
2022-12-12T07:06:17.861Z,101080.00
2022-12-12T07:08:44.745Z,101078.28
2022-12-12T07:11:17.016Z,101073.16
2022-12-12T07:13:43.824Z,101069.75
2022-12-12T07:16:11.520Z,101064.56
2022-12-12T07:18:38.618Z,101067.19
2022-12-12T07:21:11.135Z,101073.22
2022-12-12T07:23:38.282Z,101066.25
2022-12-12T07:26:12.501Z,101065.44
2022-12-12T07:28:39.182Z,101066.25
2022-12-12T07:31:11.066Z,101055.00
2022-12-12T07:33:43.628Z,101058.47
2022-12-12T07:36:15.549Z,101056.72
2022-12-12T07:38:42.696Z,101048.91
2022-12-12T07:41:15.174Z,101052.38
2022-12-12T07:43:44.898Z,101053.22
2022-12-12T07:46:16.156Z,101044.59
2022-12-12T07:48:43.206Z,101044.63
2022-12-12T07:51:10.054Z,101048.97
2022-12-12T07:53:36.868Z,101038.63
2022-12-12T07:56:07.839Z,101039.47
2022-12-12T07:58:35.619Z,101045.53
2022-12-12T08:01:14.178Z,101039.47
2022-12-12T08:03:42.260Z,101049.03
2022-12-12T08:06:08.974Z,101044.69
2022-12-12T08:08:35.705Z,101049.09
2022-12-12T08:11:10.424Z,101046.56
2022-12-12T08:13:39.288Z,101043.97
2022-12-12T08:16:08.262Z,101024.09
2022-12-12T08:18:35.085Z,101025.88
2022-12-12T08:21:01.857Z,101024.16
2022-12-12T08:23:28.558Z,101017.22
2022-12-12T08:25:55.192Z,101010.34
2022-12-12T08:28:21.807Z,101010.34
2022-12-12T08:30:50.210Z,101006.91
2022-12-12T08:33:17.043Z,101001.78
2022-12-12T08:35:43.647Z,101001.78
2022-12-12T08:38:10.235Z,100998.38
2022-12-12T08:40:36.838Z,100992.34
2022-12-12T08:43:03.465Z,100984.56
2022-12-12T08:45:30.081Z,100993.28
2022-12-12T08:47:56.700Z,100983.75
2022-12-12T08:50:23.325Z,100991.56
2022-12-12T08:52:49.942Z,100985.56
2022-12-12T08:55:16.643Z,100983.84
2022-12-12T08:57:43.599Z,100990.84
2022-12-12T09:00:10.948Z,100988.28
2022-12-12T09:02:37.740Z,100974.44
2022-12-12T09:05:04.902Z,100981.38
2022-12-12T09:07:31.542Z,100982.31
2022-12-12T09:09:58.192Z,100974.56
2022-12-12T09:12:24.885Z,100971.13
2022-12-12T09:14:51.534Z,100972.84
2022-12-12T09:17:18.130Z,100970.25
2022-12-12T09:19:45.823Z,100971.19
2022-12-12T09:22:12.726Z,100960.78
2022-12-12T09:24:39.477Z,100961.66
2022-12-12T09:27:06.102Z,100953.88
2022-12-12T09:29:32.746Z,100947.00
2022-12-12T09:31:59.504Z,100941.81
2022-12-12T09:34:26.168Z,100941.75
2022-12-12T09:36:52.797Z,100931.38
2022-12-12T09:39:19.742Z,100930.50
2022-12-12T09:41:46.382Z,100934.88
2022-12-12T09:44:19.607Z,100927.91
2022-12-12T09:46:47.961Z,100926.22
2022-12-12T09:49:43.024Z,100909.78
2022-12-12T09:52:17.769Z,100919.34
2022-12-12T09:54:45.284Z,100915.91
2022-12-12T09:57:11.864Z,100907.25
2022-12-12T09:59:42.287Z,100905.53
2022-12-12T10:02:24.135Z,100913.31
2022-12-12T10:05:19.668Z,100909.91
2022-12-12T10:08:12.284Z,100911.56
2022-12-12T10:10:45.074Z,100912.44
2022-12-12T10:13:17.974Z,100906.38
2022-12-12T10:15:51.339Z,100905.56
2022-12-12T10:18:31.638Z,100906.44
2022-12-12T10:21:04.735Z,100893.44
2022-12-12T10:23:51.002Z,100901.25
2022-12-12T10:26:22.247Z,100893.47
2022-12-12T10:28:53.318Z,100896.97
2022-12-12T10:31:34.915Z,100896.13
2022-12-12T10:34:18.007Z,100889.25
2022-12-12T10:37:21.774Z,100887.56
2022-12-12T10:40:00.462Z,100881.50
2022-12-12T10:42:30.096Z,100885.88
2022-12-12T10:45:02.545Z,100881.56
2022-12-12T10:47:29.206Z,100883.28
2022-12-12T10:50:23.190Z,100870.31
2022-12-12T10:52:50.106Z,100868.59
2022-12-12T10:55:23.902Z,100868.59
2022-12-12T10:58:04.331Z,100864.25
2022-12-12T11:00:39.529Z,100866.84
2022-12-12T11:03:29.790Z,100870.31
2022-12-12T11:05:57.205Z,100855.56
2022-12-12T11:08:34.370Z,100850.44
2022-12-12T11:11:27.116Z,100846.13
2022-12-12T11:13:53.706Z,100840.09
2022-12-12T11:16:25.146Z,100827.94
2022-12-12T11:19:00.770Z,100822.72
2022-12-12T11:21:28.759Z,100832.31
2022-12-12T11:23:58.027Z,100821.00
2022-12-12T11:26:28.552Z,100823.59
2022-12-12T11:29:02.106Z,100828.78
2022-12-12T11:31:35.272Z,100814.94
2022-12-12T11:34:06.386Z,100807.13
2022-12-12T11:36:37.681Z,100803.66
2022-12-12T11:39:40.781Z,100804.53
2022-12-12T11:42:13.555Z,100798.50
2022-12-12T11:44:41.682Z,100793.31
2022-12-12T11:47:26.857Z,100791.59
2022-12-12T11:50:03.747Z,100784.66
2022-12-12T11:52:33.858Z,100781.16
2022-12-12T11:55:00.969Z,100775.94
2022-12-12T11:57:33.453Z,100788.13
2022-12-12T12:00:11.530Z,100783.78
2022-12-12T12:03:06.042Z,100774.28
2022-12-12T12:06:00.187Z,100784.72
2022-12-12T12:08:32.900Z,100785.53
2022-12-12T12:11:16.230Z,100777.72
2022-12-12T12:14:01.461Z,100774.25
2022-12-12T12:16:40.582Z,100765.59
2022-12-12T12:19:19.266Z,100769.06
2022-12-12T12:22:23.343Z,100773.41
2022-12-12T12:25:04.742Z,100772.53
2022-12-12T12:28:02.034Z,100763.88
2022-12-12T12:30:39.560Z,100760.34
2022-12-12T12:33:37.047Z,100760.34
2022-12-12T12:36:20.867Z,100756.88
2022-12-12T12:39:17.870Z,100756.88
2022-12-12T12:42:01.077Z,100757.81
2022-12-12T12:44:42.991Z,100750.00
2022-12-12T12:47:29.738Z,100757.81
2022-12-12T12:50:14.602Z,100742.16
2022-12-12T12:53:06.268Z,100743.94
2022-12-12T12:55:40.004Z,100748.28
2022-12-12T12:58:15.224Z,100744.75
2022-12-12T13:00:42.337Z,100743.03
2022-12-12T13:03:23.257Z,100736.91
2022-12-12T13:05:59.843Z,100745.56
2022-12-12T13:08:40.027Z,100739.47
2022-12-12T13:11:23.361Z,100732.47
2022-12-12T13:13:52.082Z,100730.75
2022-12-12T13:16:22.917Z,100726.41
2022-12-12T13:19:01.706Z,100725.53
2022-12-12T13:21:54.731Z,100725.50
2022-12-12T13:25:06.151Z,100727.25
2022-12-12T13:27:45.832Z,100722.00
2022-12-12T13:30:24.039Z,100728.03
2022-12-12T13:32:59.863Z,100721.97
2022-12-12T13:35:35.458Z,100725.41
2022-12-12T13:38:03.736Z,100723.63
2022-12-12T13:40:42.185Z,100722.75
2022-12-12T13:43:28.994Z,100711.44
2022-12-12T13:45:55.749Z,100696.72
2022-12-12T13:48:42.916Z,100704.50
2022-12-12T13:51:27.853Z,100701.84
2022-12-12T13:54:12.130Z,100690.59
2022-12-12T13:56:45.353Z,100691.41
2022-12-12T13:59:27.002Z,100695.72
2022-12-12T14:02:20.779Z,100691.41
2022-12-12T14:05:05.053Z,100689.63
2022-12-12T14:07:32.355Z,100683.56
2022-12-12T14:10:02.223Z,100687.00
2022-12-12T14:12:33.582Z,100683.50
2022-12-12T14:15:07.082Z,100686.13
2022-12-12T14:17:42.270Z,100680.91
2022-12-12T14:20:30.615Z,100672.22
2022-12-12T14:23:00.017Z,100670.47
2022-12-12T14:25:34.933Z,100673.06
2022-12-12T14:28:16.933Z,100669.56
2022-12-12T14:30:52.436Z,100669.56
2022-12-12T14:33:40.748Z,100659.22
2022-12-12T14:36:49.749Z,100657.47
2022-12-12T14:39:34.080Z,100654.88
2022-12-12T14:42:05.776Z,100655.75
2022-12-12T14:44:36.528Z,100644.50
2022-12-12T14:47:09.174Z,100646.19
2022-12-12T14:49:36.544Z,100649.69
2022-12-12T14:52:03.366Z,100638.41
2022-12-12T14:54:31.088Z,100636.66
2022-12-12T14:57:01.626Z,100634.97
2022-12-12T14:59:32.295Z,100626.28
2022-12-12T15:02:40.075Z,100636.66
2022-12-12T15:05:08.032Z,100629.72
2022-12-12T15:07:38.926Z,100626.25
2022-12-12T15:10:27.535Z,100635.78
2022-12-12T15:12:54.231Z,100621.03
2022-12-12T15:15:25.123Z,100613.25
2022-12-12T15:17:52.619Z,100618.44
2022-12-12T15:20:22.899Z,100612.38
2022-12-12T15:22:58.668Z,100602.03
2022-12-12T15:25:29.091Z,100608.09
2022-12-12T15:27:56.816Z,100602.03
2022-12-12T15:30:36.942Z,100594.19
2022-12-12T15:33:06.302Z,100589.03
2022-12-12T15:35:33.672Z,100599.44
2022-12-12T15:38:02.562Z,100595.13
2022-12-12T15:40:37.514Z,100593.38
2022-12-12T15:43:07.123Z,100589.91
2022-12-12T15:45:40.082Z,100583.88
2022-12-12T15:48:08.054Z,100573.47
2022-12-12T15:50:34.597Z,100576.06
2022-12-12T15:53:08.164Z,100583.88
2022-12-12T15:55:35.536Z,100573.53
2022-12-12T15:58:02.325Z,100576.13
2022-12-12T16:00:36.118Z,100576.16
2022-12-12T16:03:20.314Z,100578.75
2022-12-12T16:05:59.316Z,100565.75
2022-12-12T16:08:35.465Z,100568.34
2022-12-12T16:11:31.865Z,100574.44
2022-12-12T16:13:59.707Z,100577.91
2022-12-12T16:16:41.032Z,100570.97
2022-12-12T16:19:50.331Z,100576.22
2022-12-12T16:22:30.798Z,100566.69
2022-12-12T16:25:18.518Z,100570.16
2022-12-12T16:27:47.111Z,100559.75
2022-12-12T16:30:15.634Z,100564.09
2022-12-12T16:32:43.548Z,100552.84
2022-12-12T16:35:15.842Z,100541.59
2022-12-12T16:37:42.546Z,100543.38
2022-12-12T16:40:14.477Z,100541.59
2022-12-12T16:42:43.572Z,100531.25
2022-12-12T16:45:12.174Z,100522.59
2022-12-12T16:47:38.803Z,100521.75
2022-12-12T16:50:05.737Z,100526.97
2022-12-12T16:52:32.397Z,100526.09
2022-12-12T16:54:59.011Z,100511.38
2022-12-12T16:57:25.642Z,100515.72
2022-12-12T16:59:52.270Z,100517.47
2022-12-12T17:02:22.046Z,100506.22
2022-12-12T17:04:50.905Z,100499.28
2022-12-12T17:07:17.818Z,100511.41
2022-12-12T17:09:44.509Z,100504.50
2022-12-12T17:12:13.156Z,100492.38
2022-12-12T17:14:40.093Z,100497.59
2022-12-12T17:17:07.019Z,100486.31
2022-12-12T17:19:33.979Z,100488.94
2022-12-12T17:22:01.080Z,100498.53
2022-12-12T17:24:28.262Z,100482.03
2022-12-12T17:26:55.086Z,100485.53
2022-12-12T17:29:22.490Z,100480.34
2022-12-12T17:31:49.193Z,100471.69
2022-12-12T17:34:16.359Z,100473.41
2022-12-12T17:36:43.021Z,100462.16
2022-12-12T17:39:11.011Z,100457.81
2022-12-12T17:41:37.700Z,100454.41
2022-12-12T17:44:04.479Z,100466.53
2022-12-12T17:46:31.087Z,100440.53
2022-12-12T17:48:58.985Z,100449.22
2022-12-12T17:51:25.832Z,100453.53
2022-12-12T17:53:52.977Z,100444.88
2022-12-12T17:56:24.125Z,100434.53
2022-12-12T17:58:51.141Z,100438.84
2022-12-12T18:01:27.150Z,100451.84
2022-12-12T18:03:54.802Z,100439.72
2022-12-12T18:06:23.223Z,100434.53
2022-12-12T18:08:50.228Z,100432.81
2022-12-12T18:11:24.562Z,100439.75
2022-12-12T18:13:53.107Z,100431.09
2022-12-12T18:16:20.487Z,100428.50
2022-12-12T18:18:47.791Z,100425.94
2022-12-12T18:21:43.380Z,100435.47
2022-12-12T18:24:06.643Z,100429.41
2022-12-12T18:26:33.555Z,100425.06
2022-12-12T18:29:03.715Z,100426.75
2022-12-12T18:31:31.138Z,100406.00
2022-12-12T18:33:58.473Z,100407.75
2022-12-12T18:36:27.961Z,100399.94
2022-12-12T18:38:59.687Z,100414.66
2022-12-12T18:41:28.331Z,100411.25
2022-12-12T18:43:55.603Z,100401.69
2022-12-12T18:46:27.853Z,100399.13
2022-12-12T18:48:54.513Z,100401.69
2022-12-12T18:51:23.881Z,100398.25
2022-12-12T18:53:53.185Z,100391.31
2022-12-12T18:56:25.585Z,100392.19
2022-12-12T18:58:53.727Z,100387.00
2022-12-12T19:01:23.407Z,100392.19
2022-12-12T19:03:52.944Z,100387.00
2022-12-12T19:06:26.110Z,100392.19
2022-12-12T19:08:53.919Z,100379.19
2022-12-12T19:11:20.635Z,100378.31
2022-12-12T19:13:47.690Z,100381.78
2022-12-12T19:16:16.939Z,100380.91
2022-12-12T19:18:44.538Z,100377.47
2022-12-12T19:21:15.036Z,100366.22
2022-12-12T19:23:42.307Z,100381.78
2022-12-12T19:26:25.273Z,100371.41
2022-12-12T19:28:55.781Z,100374.84
2022-12-12T19:31:22.837Z,100369.63
2022-12-12T19:33:49.497Z,100360.09
2022-12-12T19:36:18.903Z,100353.19
2022-12-12T19:38:46.113Z,100358.34
2022-12-12T19:41:14.566Z,100364.41
2022-12-12T19:43:42.880Z,100355.75
2022-12-12T19:46:12.373Z,100354.88
2022-12-12T19:48:39.620Z,100349.66
2022-12-12T19:51:09.787Z,100353.09
2022-12-12T19:53:41.135Z,100354.81
2022-12-12T19:56:08.519Z,100343.53
2022-12-12T19:58:38.701Z,100354.78
2022-12-12T20:01:08.073Z,100340.06
2022-12-12T20:03:35.246Z,100341.75
2022-12-12T20:06:07.838Z,100340.00
2022-12-12T20:08:35.778Z,100339.97
2022-12-12T20:11:07.490Z,100339.97
2022-12-12T20:13:34.699Z,100337.38
2022-12-12T20:16:12.195Z,100328.72
2022-12-12T20:18:39.742Z,100340.78
2022-12-12T20:21:06.526Z,100326.91
2022-12-12T20:23:35.876Z,100326.03
2022-12-12T20:26:04.070Z,100329.50
2022-12-12T20:28:30.851Z,100326.00
2022-12-12T20:31:24.743Z,100341.59
2022-12-12T20:33:55.062Z,100341.59
2022-12-12T20:36:27.120Z,100336.38
2022-12-12T20:38:56.662Z,100342.41
2022-12-12T20:41:25.954Z,100338.97
2022-12-12T20:43:57.711Z,100345.88
2022-12-12T20:46:32.773Z,100339.78
2022-12-12T20:49:01.294Z,100331.13
2022-12-12T20:51:54.915Z,100326.81
2022-12-12T20:54:21.567Z,100328.50
2022-12-12T20:56:51.532Z,100323.28
2022-12-12T20:59:18.198Z,100325.91
2022-12-12T21:01:44.978Z,100319.81
2022-12-12T21:04:11.817Z,100328.50
2022-12-12T21:06:41.091Z,100307.72
2022-12-12T21:09:10.454Z,100314.66
2022-12-12T21:11:38.797Z,100318.97
2022-12-12T21:14:06.838Z,100302.53
2022-12-12T21:16:36.350Z,100308.56
2022-12-12T21:19:12.371Z,100313.75
2022-12-12T21:21:40.824Z,100303.38
2022-12-12T21:24:08.197Z,100302.50
2022-12-12T21:26:35.106Z,100293.81
2022-12-12T21:29:03.082Z,100291.22
2022-12-12T21:31:32.497Z,100293.81
2022-12-12T21:34:00.256Z,100284.25
2022-12-12T21:36:28.212Z,100294.69
2022-12-12T21:38:56.850Z,100263.53
2022-12-12T21:41:23.988Z,100284.28
2022-12-12T21:43:50.978Z,100267.84
2022-12-12T21:46:20.288Z,100269.59
2022-12-12T21:48:47.803Z,100265.25
2022-12-12T21:51:16.429Z,100263.53
2022-12-12T21:53:43.444Z,100259.19
2022-12-12T21:56:18.337Z,100245.34
2022-12-12T21:58:46.542Z,100255.69
2022-12-12T22:01:16.774Z,100252.25
2022-12-12T22:03:44.652Z,100247.06
2022-12-12T22:06:25.854Z,100253.97
2022-12-12T22:08:55.538Z,100256.56
2022-12-12T22:11:40.275Z,100248.75
2022-12-12T22:14:10.444Z,100232.31
2022-12-12T22:16:38.002Z,100247.88
2022-12-12T22:19:13.376Z,100249.63
2022-12-12T22:21:40.358Z,100246.13
2022-12-12T22:24:07.359Z,100240.94
2022-12-12T22:26:39.140Z,100253.03
2022-12-12T22:29:09.796Z,100237.50
2022-12-12T22:31:38.291Z,100232.31
2022-12-12T22:34:15.615Z,100242.66
2022-12-12T22:36:43.151Z,100235.78
2022-12-12T22:39:17.911Z,100241.81
2022-12-12T22:41:45.314Z,100228.84
2022-12-12T22:44:17.173Z,100217.59
2022-12-12T22:46:46.228Z,100232.31
2022-12-12T22:49:15.282Z,100213.28
2022-12-12T22:51:42.010Z,100221.94
2022-12-12T22:54:08.679Z,100204.63
2022-12-12T22:56:36.950Z,100218.47
2022-12-12T22:59:05.324Z,100217.59
2022-12-12T23:01:31.978Z,100206.34
2022-12-12T23:03:59.147Z,100200.31
2022-12-12T23:06:34.089Z,100197.69
2022-12-12T23:09:04.711Z,100196.84
2022-12-12T23:11:32.393Z,100193.38
2022-12-12T23:14:04.533Z,100194.28
2022-12-12T23:16:31.321Z,100198.56
2022-12-12T23:18:59.136Z,100191.66
2022-12-12T23:21:26.686Z,100176.06
2022-12-12T23:23:55.380Z,100185.63
2022-12-12T23:26:25.075Z,100178.69
2022-12-12T23:28:52.128Z,100176.06
2022-12-12T23:31:31.798Z,100160.50
2022-12-12T23:34:01.191Z,100167.41
2022-12-12T23:36:29.015Z,100163.09
2022-12-12T23:38:57.475Z,100179.53
2022-12-12T23:41:25.153Z,100163.03
2022-12-12T23:43:52.706Z,100169.09
2022-12-12T23:46:28.927Z,100166.50
2022-12-12T23:49:11.647Z,100175.16
2022-12-12T23:51:59.389Z,100160.41
2022-12-12T23:54:32.181Z,100146.56
2022-12-12T23:56:59.797Z,100150.91
2022-12-12T23:59:27.396Z,100153.47
